Time;durP1;ratioP1;P1;durP2;ratioP2;P2;SDS_P1;SDS_P2;PMS_P1;PMS_P2;Temp;Humidity;BMP_temperature;BMP_pressure;BME280_temperature;BME280_humidity;BME280_pressure;Samples;Min_cycle;Max_cycle;Signal;HPM_P1;HPM_P2
2022/05/03 00:02:25;;;;;;;0.90;0.90;;;;;;;11.51;100.00;100114.44;4945416;28;20460;-53
2022/05/03 00:05:12;;;;;;;1.40;1.03;;;;;;;11.55;100.00;100106.31;4951697;28;20472;-53
2022/05/03 00:08:09;;;;;;;0.40;0.40;;;;;;;11.35;100.00;100107.91;4951307;29;20553;-53
2022/05/03 00:11:09;;;;;;;1.27;1.27;;;;;;;11.35;100.00;100100.78;4951713;28;20440;-53
2022/05/03 00:14:10;;;;;;;0.30;0.20;;;;;;;11.34;100.00;100101.72;4933348;28;20918;-53
2022/05/03 00:16:55;;;;;;;0.30;0.20;;;;;;;11.21;100.00;100103.94;4951381;28;20868;-53
2022/05/03 00:19:54;;;;;;;0.40;0.40;;;;;;;11.02;100.00;100099.31;4951353;29;20443;-53
2022/05/03 00:22:51;;;;;;;0.30;0.20;;;;;;;10.98;100.00;100101.19;4949272;28;20469;-53
2022/05/03 00:25:31;;;;;;;0.40;0.30;;;;;;;11.06;100.00;100092.94;4944046;28;21067;-53
2022/05/03 00:28:23;;;;;;;0.30;0.20;;;;;;;10.95;100.00;100087.97;4943269;28;20972;-53
2022/05/03 00:31:16;;;;;;;0.60;0.60;;;;;;;11.03;100.00;100106.34;4950514;28;20513;-53
2022/05/03 00:34:03;;;;;;;0.30;0.20;;;;;;;10.75;100.00;100101.06;4950943;28;21002;-53
2022/05/03 00:37:08;;;;;;;0.30;0.20;;;;;;;10.70;100.00;100095.03;4946160;28;20549;-53
2022/05/03 00:39:55;;;;;;;0.30;0.20;;;;;;;10.67;100.00;100096.00;4934103;29;20470;-53
2022/05/03 00:42:30;;;;;;;0.87;0.87;;;;;;;10.58;100.00;100094.50;4943468;28;20460;-53
2022/05/03 00:45:06;;;;;;;0.40;0.40;;;;;;;10.67;100.00;100096.84;4950749;28;20980;-53
2022/05/03 00:47:54;;;;;;;1.23;0.63;;;;;;;10.52;100.00;100100.00;4950857;28;20578;-53
2022/05/03 00:50:39;;;;;;;0.40;0.30;;;;;;;10.83;100.00;100089.28;4950725;28;20454;-53
2022/05/03 00:53:18;;;;;;;0.30;0.20;;;;;;;10.86;100.00;100102.47;4950646;28;20459;-54
2022/05/03 00:55:55;;;;;;;0.40;0.40;;;;;;;11.00;100.00;100110.00;4950702;28;20447;-53
2022/05/03 00:58:54;;;;;;;0.30;0.20;;;;;;;11.01;100.00;100101.09;4950517;28;20454;-53
2022/05/03 01:01:51;;;;;;;0.40;0.40;;;;;;;11.11;100.00;100102.53;4950606;28;20530;-53
2022/05/03 01:04:27;;;;;;;0.50;0.50;;;;;;;10.99;100.00;100097.63;4950811;28;20893;-53
2022/05/03 01:07:04;;;;;;;0.50;0.50;;;;;;;11.08;100.00;100099.06;4950500;28;20498;-53
2022/05/03 01:09:42;;;;;;;0.40;0.40;;;;;;;11.03;100.00;100101.91;4950586;28;21085;-53
2022/05/03 01:12:56;;;;;;;0.30;0.20;;;;;;;11.03;100.00;100101.91;4950511;28;20482;-53
2022/05/03 01:15:28;;;;;;;0.30;0.20;;;;;;;11.19;100.00;100104.91;4948028;28;20900;-53
2022/05/03 01:18:01;;;;;;;0.50;0.50;;;;;;;11.25;100.00;100105.59;4953968;28;20479;-53
2022/05/03 01:20:41;;;;;;;0.30;0.20;;;;;;;11.08;100.00;100102.59;4953594;28;20451;-53
2022/05/03 01:23:40;;;;;;;0.70;0.70;;;;;;;11.01;100.00;100101.09;4929444;29;20514;-53
2022/05/03 01:26:38;;;;;;;0.97;0.97;;;;;;;10.91;100.00;100099.66;4952288;29;22386;-53
2022/05/03 01:29:34;;;;;;;0.40;0.30;;;;;;;10.92;100.00;100096.94;4953563;29;20454;-53
2022/05/03 01:32:04;;;;;;;0.30;0.20;;;;;;;10.99;100.00;100097.63;4953470;28;20454;-53
2022/05/03 01:34:32;;;;;;;0.30;0.20;;;;;;;10.81;100.00;100092.88;4953715;29;20490;-53
2022/05/03 01:37:02;;;;;;;0.53;0.53;;;;;;;10.90;100.00;100095.25;4953610;28;20575;-53
2022/05/03 01:40:02;;;;;;;0.57;0.57;;;;;;;10.99;100.00;100089.63;4953637;28;20455;-53
2022/05/03 01:42:50;;;;;;;2.10;1.23;;;;;;;10.88;100.00;100089.13;4935899;29;20451;-53
2022/05/03 01:45:36;;;;;;;0.30;0.20;;;;;;;10.93;100.00;100088.03;4953698;28;20466;-53
2022/05/03 01:48:24;;;;;;;0.40;0.20;;;;;;;11.11;100.00;100096.34;4953465;28;20502;-53
2022/05/03 01:51:17;;;;;;;0.60;0.60;;;;;;;11.04;100.00;100085.03;4931970;28;20581;-53
2022/05/03 01:53:56;;;;;;;0.40;0.40;;;;;;;11.10;100.00;100089.25;4959929;23;21019;-51
2022/05/03 01:56:30;;;;;;;0.30;0.20;;;;;;;11.14;100.00;100086.47;4934257;28;20868;-52
2022/05/03 01:59:17;;;;;;;0.40;0.30;;;;;;;11.09;100.00;100087.50;4934046;28;20448;-51
2022/05/03 02:01:53;;;;;;;0.40;0.40;;;;;;;11.16;100.00;100089.06;4933981;29;20850;-52
2022/05/03 02:04:46;;;;;;;0.77;0.77;;;;;;;11.35;100.00;100087.50;4944433;28;20470;-52
2022/05/03 02:07:25;;;;;;;0.30;0.20;;;;;;;11.14;100.00;100081.13;4934204;28;20899;-52
2022/05/03 02:10:18;;;;;;;0.30;0.20;;;;;;;11.08;100.00;100086.66;4953344;28;20447;-51
2022/05/03 02:12:53;;;;;;;0.30;0.20;;;;;;;11.28;100.00;100089.50;4952854;28;20444;-51
2022/05/03 02:15:38;;;;;;;0.30;0.20;;;;;;;11.32;100.00;100084.06;4953058;28;21044;-51
2022/05/03 02:18:19;;;;;;;0.30;0.20;;;;;;;11.21;100.00;100082.66;4953139;28;20509;-51
2022/05/03 02:20:52;;;;;;;0.30;0.20;;;;;;;10.91;100.00;100081.03;4953144;28;20451;-51
2022/05/03 02:23:40;;;;;;;0.57;0.57;;;;;;;11.04;100.00;100089.47;4950243;28;20861;-50
2022/05/03 02:26:36;;;;;;;0.30;0.20;;;;;;;11.04;100.00;100094.78;4951152;28;21044;-52
2022/05/03 02:29:04;;;;;;;0.40;0.30;;;;;;;11.10;100.00;100081.28;4952813;28;20501;-52
2022/05/03 02:31:41;;;;;;;0.40;0.40;;;;;;;10.93;100.00;100085.38;4952885;28;20501;-50
2022/05/03 02:34:43;;;;;;;7.83;2.83;;;;;;;11.01;100.00;100086.91;4952740;28;20467;-52
2022/05/03 02:37:49;;;;;;;2.00;1.90;;;;;;;10.87;100.00;100087.38;4952773;29;20885;-51
2022/05/03 02:40:24;;;;;;;0.30;0.20;;;;;;;11.09;100.00;100091.03;4952653;28;20451;-51
2022/05/03 02:42:51;;;;;;;1.33;1.17;;;;;;;11.31;100.00;100090.31;4945149;28;20458;-52
2022/05/03 02:45:18;;;;;;;2.00;1.90;;;;;;;11.10;100.00;100086.59;4952638;28;20532;-51
2022/05/03 02:48:18;;;;;;;0.40;0.30;;;;;;;11.00;100.00;100082.53;4952675;28;20495;-52
2022/05/03 02:50:53;;;;;;;0.30;0.20;;;;;;;10.87;100.00;100084.72;4929405;28;20456;-52
2022/05/03 02:53:47;;;;;;;0.40;0.40;;;;;;;10.75;100.00;100079.81;4952151;28;20502;-52
2022/05/03 02:56:26;;;;;;;0.30;0.20;;;;;;;10.79;100.00;100084.09;4952508;28;21077;-52
2022/05/03 02:59:05;;;;;;;0.40;0.30;;;;;;;10.74;100.00;100086.03;4944463;28;20513;-50
2022/05/03 03:02:17;;;;;;;0.30;0.20;;;;;;;10.62;100.00;100084.66;4952320;28;20835;-51
2022/05/03 03:04:51;;;;;;;0.40;0.30;;;;;;;10.68;100.00;100085.31;4936901;29;20502;-52
2022/05/03 03:07:21;;;;;;;0.30;0.20;;;;;;;10.71;100.00;100080.84;4952520;28;20497;-51
2022/05/03 03:09:54;;;;;;;0.40;0.40;;;;;;;10.61;100.00;100080.25;4952390;28;20964;-51
2022/05/03 03:12:26;;;;;;;0.40;0.40;;;;;;;10.39;100.00;100088.88;4952487;28;20538;-52
2022/05/03 03:15:06;;;;;;;0.30;0.20;;;;;;;10.49;100.00;100088.63;4952167;28;20506;-51
2022/05/03 03:17:40;;;;;;;0.77;0.77;;;;;;;10.55;100.00;100080.44;4952200;28;20505;-52
2022/05/03 03:20:13;;;;;;;0.83;0.63;;;;;;;10.42;100.00;100087.94;4952098;29;20448;-50
2022/05/03 03:22:45;;;;;;;0.30;0.20;;;;;;;10.45;100.00;100093.16;4951978;28;20949;-52
2022/05/03 03:25:17;;;;;;;0.70;0.70;;;;;;;10.48;100.00;100092.19;4944872;29;20475;-51
2022/05/03 03:27:46;;;;;;;7.63;2.30;;;;;;;10.67;100.00;100088.00;4951689;28;20494;-50
2022/05/03 03:30:20;;;;;;;0.30;0.20;;;;;;;10.68;100.00;100085.31;4952198;28;20451;-52
2022/05/03 03:32:49;;;;;;;0.30;0.20;;;;;;;10.79;100.00;100086.75;4951621;28;20478;-52
2022/05/03 03:35:17;;;;;;;0.40;0.30;;;;;;;10.91;100.00;100097.00;4952000;28;20467;-52
2022/05/03 03:37:49;;;;;;;0.40;0.30;;;;;;;10.92;100.00;100090.75;4951443;28;20509;-52
2022/05/03 03:40:17;;;;;;;0.33;0.27;;;;;;;10.86;100.00;100091.84;4951688;28;20455;-52
2022/05/03 03:42:45;;;;;;;0.30;0.20;;;;;;;10.93;100.00;100092.47;4944331;28;20879;-51
2022/05/03 03:45:14;;;;;;;0.30;0.20;;;;;;;11.03;100.00;100090.41;4951586;28;20534;-51
2022/05/03 03:47:43;;;;;;;0.30;0.20;;;;;;;10.93;100.00;100079.19;4951638;28;20919;-52
2022/05/03 03:50:10;;;;;;;0.30;0.20;;;;;;;11.10;100.00;100082.16;4948901;28;21015;-52
2022/05/03 03:52:39;;;;;;;0.40;0.40;;;;;;;11.15;100.00;100084.66;4942280;29;20463;-51
2022/05/03 03:55:08;;;;;;;0.30;0.20;;;;;;;10.95;100.00;100093.28;4951015;28;20533;-51
2022/05/03 03:57:36;;;;;;;1.23;1.13;;;;;;;10.77;100.00;100081.50;4951373;28;20455;-51
2022/05/03 04:00:06;;;;;;;2.00;0.83;;;;;;;10.97;100.00;100086.16;4951356;28;20460;-52
2022/05/03 04:02:34;;;;;;;0.30;0.20;;;;;;;11.03;100.00;100087.75;4951400;28;20444;-52
2022/05/03 04:05:01;;;;;;;0.30;0.20;;;;;;;11.01;100.00;100097.56;4951328;28;21011;-52
2022/05/03 04:07:28;;;;;;;0.30;0.20;;;;;;;11.13;100.00;100092.69;4951252;28;20490;-51
2022/05/03 04:09:54;;;;;;;1.23;1.13;;;;;;;10.93;100.00;100087.16;4951285;28;20820;-52
2022/05/03 04:12:21;;;;;;;0.30;0.20;;;;;;;10.97;100.00;100094.16;4951033;28;20864;-52
2022/05/03 04:14:48;;;;;;;7.03;1.27;;;;;;;10.94;100.00;100088.91;4951331;28;20533;-51
2022/05/03 04:17:15;;;;;;;1.70;1.70;;;;;;;11.08;100.00;100089.31;4951514;28;20451;-52
2022/05/03 04:19:43;;;;;;;0.40;0.20;;;;;;;10.96;100.00;100095.03;4951318;28;20451;-51
2022/05/03 04:22:31;;;;;;;0.30;0.20;;;;;;;11.00;100.00;100091.38;4951724;28;20460;-52
2022/05/03 04:24:59;;;;;;;0.30;0.20;;;;;;;11.14;100.00;100096.22;4937720;28;20983;-51
2022/05/03 04:27:27;;;;;;;0.70;0.70;;;;;;;11.11;100.00;100094.53;4950988;28;20490;-52
2022/05/03 04:29:54;;;;;;;2.03;1.93;;;;;;;11.18;100.00;100101.38;4951088;28;20506;-51
2022/05/03 04:32:21;;;;;;;0.40;0.40;;;;;;;11.32;100.00;100098.25;4951061;28;20459;-50
2022/05/03 04:34:48;;;;;;;0.40;0.30;;;;;;;11.37;100.00;100100.75;4941367;29;21020;-52
2022/05/03 04:37:15;;;;;;;0.40;0.30;;;;;;;11.40;100.00;100100.66;4948218;28;20522;-52
2022/05/03 04:39:42;;;;;;;0.83;0.83;;;;;;;11.89;100.00;100097.13;4950827;28;20959;-51
2022/05/03 04:42:09;;;;;;;0.30;0.20;;;;;;;11.54;100.00;100099.25;4943597;28;20459;-51
2022/05/03 04:44:36;;;;;;;0.97;0.87;;;;;;;11.56;100.00;100104.50;4950900;28;20475;-52
2022/05/03 04:47:02;;;;;;;0.47;0.47;;;;;;;11.57;100.00;100114.22;4950665;28;20494;-51
2022/05/03 04:49:29;;;;;;;0.30;0.20;;;;;;;11.54;100.00;100117.00;4951041;28;20455;-52
2022/05/03 04:51:56;;;;;;;0.40;0.30;;;;;;;11.59;100.00;100109.72;4954081;28;20521;-52
2022/05/03 04:54:24;;;;;;;0.50;0.40;;;;;;;11.62;100.00;100108.72;4953748;28;20491;-52
2022/05/03 04:56:58;;;;;;;0.53;0.53;;;;;;;11.63;100.00;100110.47;4954017;28;20506;-51
2022/05/03 04:59:24;;;;;;;0.30;0.30;;;;;;;11.69;100.00;100119.13;4954097;29;20878;-52
2022/05/03 05:01:51;;;;;;;0.30;0.20;;;;;;;11.75;100.00;100118.03;4954017;28;20451;-52
2022/05/03 05:04:18;;;;;;;0.30;0.20;;;;;;;11.79;100.00;100112.59;4953996;28;20550;-52
2022/05/03 05:06:44;;;;;;;0.57;0.57;;;;;;;11.85;100.00;100115.00;4953774;28;20513;-51
2022/05/03 05:09:17;;;;;;;0.30;0.20;;;;;;;11.98;100.00;100122.56;4953760;28;20491;-52
2022/05/03 05:11:43;;;;;;;0.30;0.20;;;;;;;11.92;100.00;100120.97;4953847;28;20952;-52
2022/05/03 05:14:10;;;;;;;0.30;0.20;;;;;;;11.93;100.00;100120.06;4953808;28;20895;-51
2022/05/03 05:16:36;;;;;;;0.30;0.20;;;;;;;11.96;100.00;100121.75;4954073;28;20486;-52
2022/05/03 05:19:03;;;;;;;3.23;3.07;;;;;;;12.03;100.00;100125.91;4953536;28;20475;-51
2022/05/03 05:21:30;;;;;;;0.50;0.50;;;;;;;12.08;100.00;100122.16;4954021;28;20455;-50
2022/05/03 05:23:57;;;;;;;0.40;0.40;;;;;;;12.11;100.00;100127.38;4945353;29;20988;-51
2022/05/03 05:26:23;;;;;;;0.50;0.50;;;;;;;12.10;100.00;100128.28;4953889;28;20875;-52
2022/05/03 05:28:50;;;;;;;0.50;0.50;;;;;;;12.20;100.00;100126.16;4952726;28;20495;-51
2022/05/03 05:31:16;;;;;;;1.13;1.03;;;;;;;12.36;100.00;100123.78;4941698;28;20455;-52
2022/05/03 05:33:43;;;;;;;0.30;0.20;;;;;;;12.33;100.00;100126.53;4953420;28;20528;-51
2022/05/03 05:36:10;;;;;;;0.40;0.40;;;;;;;12.43;100.00;100127.94;4952737;29;20455;-52
2022/05/03 05:38:36;;;;;;;0.30;0.20;;;;;;;12.46;100.00;100125.13;4953655;28;20487;-51
2022/05/03 05:41:12;;;;;;;0.57;0.57;;;;;;;12.48;100.00;100125.09;4951335;28;20513;-51
2022/05/03 05:43:39;;;;;;;0.30;0.20;;;;;;;12.55;100.00;100126.59;4949587;29;20562;-51
2022/05/03 05:46:06;;;;;;;3.10;1.33;;;;;;;12.59;100.00;100133.53;4953411;28;20459;-51
2022/05/03 05:48:33;;;;;;;0.30;0.20;;;;;;;12.72;100.00;100134.78;4953404;28;20501;-51
2022/05/03 05:51:00;;;;;;;8.90;1.40;;;;;;;12.68;100.00;100131.38;4952606;29;20460;-51
2022/05/03 05:53:32;;;;;;;0.60;0.60;;;;;;;12.75;100.00;100134.69;4952698;28;20526;-51
2022/05/03 05:56:04;;;;;;;0.87;0.87;;;;;;;12.89;100.00;100136.78;4953389;28;20516;-50
2022/05/03 05:58:31;;;;;;;0.77;0.47;;;;;;;12.89;100.00;100137.66;4953172;28;20447;-51
2022/05/03 06:00:58;;;;;;;0.60;0.60;;;;;;;12.94;100.00;100135.66;4952795;28;20456;-51
2022/05/03 06:03:27;;;;;;;1.37;1.03;;;;;;;13.00;100.00;100139.88;4953273;28;20471;-51
2022/05/03 06:05:56;;;;;;;1.57;0.87;;;;;;;13.05;100.00;100136.09;4953370;28;20459;-51
2022/05/03 06:08:24;;;;;;;0.50;0.50;;;;;;;13.16;100.00;100140.13;4951801;29;20499;-51
2022/05/03 06:10:52;;;;;;;0.30;0.20;;;;;;;13.34;100.00;100131.38;4953157;29;20509;-51
2022/05/03 06:13:19;;;;;;;2.43;1.03;;;;;;;13.60;100.00;100140.94;4952763;28;20454;-52
2022/05/03 06:15:48;;;;;;;0.40;0.40;;;;;;;13.62;100.00;100142.59;4953257;28;20467;-52
2022/05/03 06:18:15;;;;;;;0.30;0.20;;;;;;;13.80;100.00;100146.25;4928108;28;20530;-52
2022/05/03 06:20:42;;;;;;;0.30;0.20;;;;;;;13.85;100.00;100152.28;4952802;28;20456;-52
2022/05/03 06:23:12;;;;;;;0.33;0.20;;;;;;;13.94;100.00;100151.84;4951302;28;20808;-51
2022/05/03 06:25:38;;;;;;;0.40;0.40;;;;;;;13.97;99.79;100152.66;4947379;29;20474;-53
2022/05/03 06:28:05;;;;;;;0.87;0.87;;;;;;;14.04;98.98;100157.66;4952604;28;20491;-51
2022/05/03 06:30:32;;;;;;;3.80;1.70;;;;;;;14.20;98.37;100160.50;4952870;28;20490;-52
2022/05/03 06:32:58;;;;;;;0.40;0.40;;;;;;;14.25;97.48;100158.47;4952736;28;20881;-52
2022/05/03 06:35:27;;;;;;;0.30;0.20;;;;;;;14.35;98.30;100161.63;4951603;28;20586;-52
2022/05/03 06:37:53;;;;;;;0.80;0.80;;;;;;;14.49;97.60;100157.38;4952764;28;20482;-51
2022/05/03 06:40:20;;;;;;;0.30;0.30;;;;;;;14.67;96.66;100173.53;4952568;28;20455;-52
2022/05/03 06:42:47;;;;;;;0.40;0.30;;;;;;;14.75;96.10;100166.88;4945020;28;20537;-52
2022/05/03 06:45:13;;;;;;;0.40;0.30;;;;;;;14.76;94.66;100170.41;4952371;28;20988;-52
2022/05/03 06:47:44;;;;;;;0.30;0.20;;;;;;;14.86;93.87;100166.34;4952612;28;20495;-52
2022/05/03 06:50:11;;;;;;;0.30;0.20;;;;;;;14.85;93.75;100159.28;4952549;28;20451;-52
2022/05/03 06:52:38;;;;;;;1.03;0.90;;;;;;;15.27;92.10;100161.66;4953109;28;20458;-52
2022/05/03 06:55:06;;;;;;;0.67;0.67;;;;;;;15.29;90.57;100166.94;4952015;28;20490;-52
2022/05/03 06:57:33;;;;;;;0.40;0.40;;;;;;;15.76;89.17;100164.56;4952566;28;20451;-52
2022/05/03 07:00:02;;;;;;;1.37;1.13;;;;;;;15.64;86.55;100173.22;4952402;28;20513;-52
2022/05/03 07:02:31;;;;;;;0.30;0.20;;;;;;;15.64;85.87;100173.22;4952519;28;20462;-51
2022/05/03 07:05:02;;;;;;;0.40;0.30;;;;;;;15.53;85.54;100173.72;4952211;28;20983;-52
2022/05/03 07:07:30;;;;;;;0.37;0.20;;;;;;;15.63;84.93;100180.41;4952005;28;20490;-52
2022/05/03 07:09:58;;;;;;;0.40;0.40;;;;;;;15.82;85.58;100174.06;4952282;28;20479;-52
2022/05/03 07:12:26;;;;;;;0.30;0.30;;;;;;;15.84;86.63;100177.53;4951253;28;20809;-51
2022/05/03 07:15:00;;;;;;;0.80;0.80;;;;;;;15.84;87.62;100181.09;4951880;28;20472;-52
2022/05/03 07:22:58;;;;;;;0.40;0.40;;;;;;;16.35;84.84;100184.66;4951867;29;20451;-52
2022/05/03 07:25:26;;;;;;;0.40;0.30;;;;;;;16.39;84.23;100190.69;4937598;29;20871;-52
2022/05/03 07:27:53;;;;;;;1.00;1.00;;;;;;;16.39;83.55;100193.38;4951729;28;20491;-53
2022/05/03 07:30:20;;;;;;;1.43;1.43;;;;;;;16.25;83.91;100188.75;4951892;28;20829;-52
2022/05/03 07:32:47;;;;;;;0.40;0.30;;;;;;;16.42;82.27;100190.53;4951948;28;20460;-52
2022/05/03 07:35:14;;;;;;;0.40;0.37;;;;;;;16.58;83.28;100191.41;4951540;28;20982;-51
2022/05/03 07:37:41;;;;;;;1.93;0.70;;;;;;;16.69;82.04;100190.88;4952045;28;20478;-52
2022/05/03 07:40:09;;;;;;;0.50;0.40;;;;;;;16.36;82.27;100196.25;4951560;29;21025;-52
2022/05/03 07:42:36;;;;;;;0.30;0.20;;;;;;;16.80;80.59;100189.31;4944325;28;20516;-52
2022/05/03 07:45:03;;;;;;;2.83;1.60;;;;;;;16.73;80.63;100193.31;4951273;28;20541;-52
2022/05/03 07:47:30;;;;;;;0.40;0.20;;;;;;;16.78;80.05;100191.22;4951609;28;20451;-52
2022/05/03 07:49:57;;;;;;;0.40;0.30;;;;;;;16.59;79.93;100199.41;4951633;29;20455;-52
2022/05/03 07:52:23;;;;;;;0.60;0.60;;;;;;;16.95;79.92;100192.09;4951837;29;20452;-53
2022/05/03 07:54:50;;;;;;;0.30;0.20;;;;;;;17.21;78.65;100182.56;4951100;28;20491;-51
2022/05/03 07:57:17;;;;;;;0.60;0.60;;;;;;;17.15;79.61;100198.09;4951480;29;20460;-51
2022/05/03 07:59:43;;;;;;;5.33;1.30;;;;;;;17.23;77.62;100196.75;4951486;28;20448;-51
2022/05/03 08:02:10;;;;;;;0.40;0.40;;;;;;;17.30;76.69;100201.72;4951711;28;20487;-51
2022/05/03 08:04:39;;;;;;;0.40;0.37;;;;;;;17.14;77.54;100193.69;4951204;28;20879;-51
2022/05/03 08:07:06;;;;;;;0.30;0.20;;;;;;;17.29;76.96;100201.81;4951342;28;21021;-51
2022/05/03 08:09:34;;;;;;;0.30;0.20;;;;;;;17.32;76.90;100194.44;4951211;28;20506;-51
2022/05/03 08:12:02;;;;;;;1.47;1.47;;;;;;;17.38;76.96;100199.44;4951308;28;20487;-51
2022/05/03 08:14:28;;;;;;;0.40;0.40;;;;;;;17.23;76.56;100210.19;4951152;28;20475;-51
2022/05/03 08:17:00;;;;;;;0.40;0.20;;;;;;;17.33;77.05;100201.53;4951432;28;20448;-51
2022/05/03 08:19:26;;;;;;;0.30;0.20;;;;;;;17.42;75.67;100206.38;4951171;28;20479;-51
2022/05/03 08:21:54;;;;;;;0.40;0.30;;;;;;;17.88;74.93;100211.75;4951306;28;20459;-51
2022/05/03 08:24:21;;;;;;;0.40;0.20;;;;;;;17.86;75.36;100208.28;4942791;28;20522;-51
2022/05/03 08:26:47;;;;;;;0.40;0.20;;;;;;;17.97;74.58;100207.66;4951186;28;20459;-51
2022/05/03 08:29:14;;;;;;;0.60;0.43;;;;;;;17.99;73.73;100205.72;4951097;28;20495;-51
2022/05/03 08:31:41;;;;;;;0.60;0.47;;;;;;;17.80;73.18;100213.16;4951192;28;20479;-51
2022/05/03 08:34:09;;;;;;;0.40;0.30;;;;;;;17.98;72.63;100209.38;4951056;28;20532;-51
2022/05/03 08:36:36;;;;;;;0.87;0.70;;;;;;;18.21;72.61;100208.81;4950984;28;20451;-51
2022/05/03 08:42:07;;;;;;;0.40;0.30;;;;;;;19.30;68.52;100210.88;4943459;28;20456;-51
2022/05/03 08:44:34;;;;;;;0.40;0.30;;;;;;;18.88;69.91;100209.16;4950847;28;20471;-51
2022/05/03 08:47:02;;;;;;;2.70;1.13;;;;;;;19.29;70.02;100211.84;4950961;28;20459;-52
2022/05/03 08:50:03;;;;;;;0.50;0.30;;;;;;;19.04;69.05;100212.56;4950637;29;20495;-51
2022/05/03 08:52:33;;;;;;;0.40;0.27;;;;;;;18.74;69.22;100215.41;4942968;28;20460;-51
2022/05/03 08:55:01;;;;;;;0.50;0.40;;;;;;;18.76;67.98;100213.47;4949975;28;20479;-50
2022/05/03 08:57:28;;;;;;;0.40;0.20;;;;;;;18.92;68.76;100210.69;4950707;28;20936;-50
2022/05/03 08:59:56;;;;;;;0.93;0.93;;;;;;;19.14;69.50;100216.41;4950417;28;20497;-50
2022/05/03 09:02:23;;;;;;;0.93;0.93;;;;;;;19.21;68.34;100219.59;4950966;28;20516;-51
2022/05/03 09:04:50;;;;;;;0.53;0.53;;;;;;;19.11;69.20;100221.13;4950442;28;20481;-50
2022/05/03 09:07:22;;;;;;;1.13;1.13;;;;;;;19.13;67.84;100217.38;4950613;29;21006;-50
2022/05/03 09:09:51;;;;;;;2.30;0.60;;;;;;;19.18;67.88;100217.94;4950578;28;21003;-50
2022/05/03 09:12:22;;;;;;;0.40;0.20;;;;;;;19.40;66.33;100212.00;4950663;28;20455;-50
2022/05/03 09:14:49;;;;;;;0.43;0.40;;;;;;;19.51;66.56;100220.25;4950177;28;21011;-50
2022/05/03 09:17:33;;;;;;;0.40;0.20;;;;;;;19.17;65.46;100226.97;4950985;28;20455;-51
2022/05/03 09:23:46;;;;;;;1.70;1.23;;;;;;;18.92;66.32;100227.72;4950554;28;20448;-50
2022/05/03 09:25:36;;;;;;;0.80;0.80;;;;;;;19.71;65.06;100216.22;4939348;29;20485;-50
2022/05/03 09:28:07;;;;;;;0.40;0.30;;;;;;;19.34;64.12;100223.22;4950495;28;20486;-50
2022/05/03 09:30:33;;;;;;;0.50;0.50;;;;;;;19.15;63.04;100226.22;4950298;28;20952;-50
2022/05/03 09:33:00;;;;;;;0.50;0.40;;;;;;;19.21;62.61;100222.28;4950329;28;20452;-50
2022/05/03 09:35:36;;;;;;;0.40;0.30;;;;;;;19.20;62.03;100226.81;4950359;28;20452;-51
2022/05/03 09:38:04;;;;;;;0.40;0.30;;;;;;;18.98;63.23;100231.84;4953839;28;20459;-50
2022/05/03 09:40:40;;;;;;;0.60;0.60;;;;;;;18.85;64.41;100218.28;4953419;28;20451;-50
2022/05/03 09:43:08;;;;;;;0.50;0.50;;;;;;;18.54;66.13;100227.41;4946052;28;20454;-50
2022/05/03 09:45:36;;;;;;;0.43;0.40;;;;;;;18.84;66.13;100221.94;4953321;28;20822;-50
2022/05/03 09:48:04;;;;;;;0.40;0.30;;;;;;;18.88;66.63;100222.63;4953431;28;20567;-50
2022/05/03 09:50:40;;;;;;;0.63;0.63;;;;;;;19.10;65.33;100214.88;4953999;28;20451;-50
2022/05/03 09:53:21;;;;;;;0.40;0.30;;;;;;;19.32;66.15;100210.78;4952420;28;20453;-50
2022/05/03 09:55:48;;;;;;;0.50;0.40;;;;;;;19.14;67.50;100212.84;4953446;28;20472;-50
2022/05/03 09:58:17;;;;;;;0.47;0.47;;;;;;;19.24;66.74;100214.00;4953111;28;20525;-50
2022/05/03 10:00:46;;;;;;;0.40;0.20;;;;;;;19.31;64.71;100218.00;4953527;28;20451;-50
2022/05/03 10:03:14;;;;;;;0.40;0.20;;;;;;;19.22;65.35;100211.41;4953293;28;20452;-50
2022/05/03 10:05:45;;;;;;;0.70;0.70;;;;;;;19.33;65.12;100204.44;4953354;28;20451;-50
2022/05/03 10:08:16;;;;;;;1.23;1.13;;;;;;;19.37;65.64;100204.13;4952961;28;20949;-50
2022/05/03 10:10:44;;;;;;;0.40;0.30;;;;;;;19.43;65.04;100213.63;4953109;28;20448;-50
2022/05/03 10:13:13;;;;;;;0.40;0.30;;;;;;;19.26;66.66;100216.56;4953230;28;20459;-53
2022/05/03 10:21:30;;;;;;;0.53;0.53;;;;;;;19.67;64.62;100206.63;4953054;28;20447;-50
2022/05/03 10:24:02;;;;;;;0.80;0.80;;;;;;;19.53;64.06;100201.28;4945210;28;20812;-50
2022/05/03 10:27:01;;;;;;;1.33;1.33;;;;;;;19.77;63.19;100199.66;4928484;29;20500;-50
2022/05/03 10:29:36;;;;;;;0.40;0.30;;;;;;;19.97;63.25;100205.50;4952546;28;20495;-51
2022/05/03 10:32:06;;;;;;;0.40;0.30;;;;;;;20.09;60.79;100204.66;4952825;28;20790;-50
2022/05/03 10:34:45;;;;;;;0.40;0.40;;;;;;;20.10;61.38;100203.69;4929584;28;20908;-50
2022/05/03 10:37:17;;;;;;;0.43;0.30;;;;;;;19.91;60.79;100197.84;4952647;28;20463;-50
2022/05/03 10:39:54;;;;;;;0.40;0.30;;;;;;;20.33;61.10;100200.25;4952477;28;20474;-50
2022/05/03 10:42:24;;;;;;;0.50;0.40;;;;;;;20.54;60.08;100202.41;4944529;28;20948;-50
2022/05/03 10:44:53;;;;;;;0.50;0.40;;;;;;;20.45;59.65;100197.69;4952655;28;20475;-50
2022/05/03 10:47:38;;;;;;;0.60;0.60;;;;;;;20.97;59.37;100192.09;4952574;28;20455;-51
2022/05/03 10:50:19;;;;;;;0.60;0.60;;;;;;;21.47;56.85;100193.75;4952519;28;20495;-50
2022/05/03 10:53:09;;;;;;;0.40;0.30;;;;;;;20.57;59.09;100191.44;4952905;28;20447;-51
2022/05/03 10:55:56;;;;;;;0.50;0.50;;;;;;;20.62;59.90;100187.41;4952220;28;20839;-51
2022/05/03 10:58:34;;;;;;;1.00;0.97;;;;;;;20.70;59.18;100184.16;4952258;28;20451;-50
2022/05/03 11:01:01;;;;;;;1.17;0.97;;;;;;;20.84;59.25;100181.31;4952314;28;21001;-50
2022/05/03 11:03:39;;;;;;;0.40;0.30;;;;;;;20.91;59.59;100170.91;4967193;28;20884;-50
2022/05/03 11:06:25;;;;;;;0.50;0.50;;;;;;;21.10;58.39;100165.00;4952407;28;20466;-50
2022/05/03 11:11:42;;;;;;;0.40;0.30;;;;;;;20.80;60.64;100169.00;4952486;28;20536;-50
2022/05/03 11:14:21;;;;;;;0.53;0.53;;;;;;;21.25;58.60;100159.38;4952261;28;20474;-50
2022/05/03 11:17:09;;;;;;;0.50;0.40;;;;;;;21.23;59.70;100155.00;4943925;28;20452;-50
2022/05/03 11:19:48;;;;;;;0.63;0.63;;;;;;;20.99;59.13;100157.72;4952159;28;20832;-50
2022/05/03 11:22:20;;;;;;;0.40;0.30;;;;;;;21.24;60.02;100156.72;4952404;28;20505;-50
2022/05/03 11:24:49;;;;;;;0.40;0.30;;;;;;;21.14;57.79;100155.72;4944270;28;20502;-50
2022/05/03 11:27:17;;;;;;;0.40;0.30;;;;;;;21.45;58.34;100144.34;4952004;28;20505;-50
2022/05/03 11:29:49;;;;;;;1.37;1.37;;;;;;;21.17;57.99;100150.94;4927040;28;20462;-50
2022/05/03 11:32:37;;;;;;;0.50;0.50;;;;;;;21.29;58.70;100141.94;4951908;28;20427;-50
2022/05/03 11:35:07;;;;;;;1.13;1.13;;;;;;;21.83;55.49;100144.09;4952308;28;20516;-50
2022/05/03 11:37:35;;;;;;;0.40;0.30;;;;;;;21.89;55.66;100135.50;4952000;29;20922;-53
2022/05/03 11:40:08;;;;;;;0.80;0.80;;;;;;;21.71;56.86;100138.78;4952243;28;20509;-53
2022/05/03 11:42:44;;;;;;;0.40;0.30;;;;;;;21.78;56.08;100138.16;4944419;28;20470;-53
2022/05/03 11:45:13;;;;;;;0.40;0.30;;;;;;;21.69;55.75;100138.03;4951606;28;20497;-53
2022/05/03 11:47:43;;;;;;;1.47;1.37;;;;;;;21.85;56.49;100135.88;4944349;28;20492;-50
2022/05/03 11:50:13;;;;;;;0.50;0.40;;;;;;;21.65;57.25;100129.28;4940995;28;20496;-50
2022/05/03 11:58:12;;;;;;;0.40;0.30;;;;;;;21.77;57.53;100122.91;4951498;29;20422;-50
2022/05/03 12:00:46;;;;;;;0.40;0.20;;;;;;;21.84;56.49;100126.03;4949940;28;20429;-50
2022/05/03 12:03:14;;;;;;;0.40;0.40;;;;;;;22.04;55.75;100119.03;4935560;28;20453;-50
2022/05/03 12:05:58;;;;;;;2.30;2.20;;;;;;;21.59;55.03;100113.53;4951792;28;20466;-50
2022/05/03 12:08:25;;;;;;;0.97;0.70;;;;;;;21.81;55.62;100110.03;4951486;28;20483;-50
2022/05/03 12:10:52;;;;;;;0.40;0.20;;;;;;;21.99;55.73;100105.00;4951508;28;20491;-50
2022/05/03 12:13:26;;;;;;;1.97;0.50;;;;;;;22.02;54.77;100105.63;4951261;28;20996;-50
2022/05/03 12:15:58;;;;;;;0.50;0.40;;;;;;;22.53;52.76;100109.72;4951103;28;20458;-53
2022/05/03 12:18:33;;;;;;;0.40;0.30;;;;;;;21.98;56.26;100114.13;4951479;28;20430;-53